createdAt,value
2017-11-21T01:45:19.035Z,6.60
2017-11-21T01:47:46.560Z,6.70
2017-11-21T01:50:14.187Z,6.80
2017-11-21T01:52:41.706Z,6.80
2017-11-21T01:55:10.110Z,6.80
2017-11-21T01:57:37.617Z,6.80
2017-11-21T02:00:05.117Z,6.80
2017-11-21T02:02:32.885Z,6.80
2017-11-21T02:05:00.408Z,6.60
2017-11-21T02:07:27.916Z,6.60
2017-11-21T02:09:55.448Z,6.60
2017-11-21T02:12:23.726Z,6.30
2017-11-21T02:14:53.061Z,6.20
2017-11-21T02:17:20.578Z,6.20
2017-11-21T02:19:48.900Z,6.00
2017-11-21T02:22:16.399Z,6.00
2017-11-21T02:24:43.935Z,6.00
2017-11-21T02:27:11.460Z,5.90
2017-11-21T02:29:38.976Z,5.80
2017-11-21T02:32:06.493Z,6.00
2017-11-21T02:34:34.060Z,6.20
2017-11-21T02:37:01.574Z,6.10
2017-11-21T02:39:29.921Z,5.90
2017-11-21T02:41:57.427Z,5.80
2017-11-21T02:44:24.936Z,5.80
2017-11-21T02:46:52.498Z,5.80
2017-11-21T02:49:19.995Z,5.80
2017-11-21T02:51:48.275Z,5.80
2017-11-21T02:54:16.555Z,5.80
2017-11-21T02:56:44.094Z,5.80
2017-11-21T02:59:12.419Z,5.80
2017-11-21T03:01:39.932Z,5.80
2017-11-21T03:04:08.264Z,6.00
2017-11-21T03:06:35.755Z,6.00
2017-11-21T03:09:03.299Z,6.10
2017-11-21T03:11:31.228Z,6.30
2017-11-21T03:13:59.549Z,6.30
2017-11-21T03:16:27.068Z,6.30
2017-11-21T03:18:54.694Z,6.30
2017-11-21T03:21:34.079Z,6.10
2017-11-21T03:24:13.337Z,6.20
2017-11-21T03:26:40.868Z,6.20
2017-11-21T03:29:08.390Z,6.20
2017-11-21T03:31:36.680Z,6.20
2017-11-21T03:34:04.955Z,6.00
2017-11-21T03:36:33.245Z,6.20
2017-11-21T03:39:00.923Z,6.20
2017-11-21T03:41:28.828Z,6.20
2017-11-21T03:43:56.828Z,6.30
2017-11-21T03:46:25.143Z,6.00
2017-11-21T03:48:52.811Z,6.00
2017-11-21T03:51:20.320Z,6.10
2017-11-21T03:53:47.857Z,6.30
2017-11-21T03:56:15.364Z,6.40
2017-11-21T03:58:43.766Z,6.40
2017-11-21T04:01:11.284Z,6.40
2017-11-21T04:03:39.556Z,6.40
2017-11-21T04:06:07.843Z,6.40
2017-11-21T04:08:36.123Z,6.50
2017-11-21T04:11:04.388Z,6.50
2017-11-21T04:13:32.911Z,6.50
2017-11-21T04:16:00.536Z,6.50
2017-11-21T04:18:28.806Z,6.70
2017-11-21T04:20:57.088Z,6.60
2017-11-21T04:23:26.664Z,6.70
2017-11-21T04:25:54.175Z,6.70
2017-11-21T04:28:21.762Z,6.80
2017-11-21T04:30:49.338Z,6.60
2017-11-21T04:33:16.856Z,6.60
2017-11-21T04:35:44.394Z,6.70
2017-11-21T04:38:11.947Z,6.40
2017-11-21T04:40:40.261Z,6.50
2017-11-21T04:43:07.898Z,6.40
2017-11-21T04:45:36.165Z,6.70
2017-11-21T04:48:04.448Z,6.50
2017-11-21T04:50:32.809Z,6.40
2017-11-21T04:53:00.320Z,6.40
2017-11-21T04:55:27.839Z,6.50
2017-11-21T04:57:56.227Z,6.80
2017-11-21T05:00:24.503Z,6.80
2017-11-21T05:02:53.347Z,6.80
2017-11-21T05:05:21.781Z,6.90
2017-11-21T05:07:50.112Z,6.90
2017-11-21T05:10:17.681Z,6.90
2017-11-21T05:12:45.179Z,7.00
2017-11-21T05:15:13.496Z,6.90
2017-11-21T05:17:41.012Z,6.90
2017-11-21T05:20:09.333Z,6.90
2017-11-21T05:22:36.863Z,6.90
2017-11-21T05:25:04.468Z,6.90
2017-11-21T05:27:32.013Z,7.00
2017-11-21T05:29:59.675Z,7.10
2017-11-21T05:32:39.100Z,7.10
2017-11-21T05:35:06.613Z,7.00
2017-11-21T05:37:34.179Z,7.00
2017-11-21T05:40:01.676Z,7.00
2017-11-21T05:42:29.228Z,6.90
2017-11-21T05:44:56.765Z,6.90
2017-11-21T05:47:25.084Z,6.80
2017-11-21T05:49:52.612Z,6.80
2017-11-21T05:52:20.891Z,6.90
2017-11-21T05:54:50.391Z,6.90
2017-11-21T05:57:18.737Z,6.70
2017-11-21T05:59:46.263Z,6.70
2017-11-21T06:02:13.782Z,6.70
2017-11-21T06:04:42.153Z,7.00
2017-11-21T06:07:10.429Z,6.90
2017-11-21T06:09:38.745Z,6.90
2017-11-21T06:12:06.281Z,6.90
2017-11-21T06:14:34.544Z,6.90
2017-11-21T06:17:02.064Z,6.80
2017-11-21T06:19:29.612Z,7.00
2017-11-21T06:21:57.111Z,7.00
2017-11-21T06:24:24.681Z,6.90
2017-11-21T06:26:52.978Z,6.90
2017-11-21T06:29:21.246Z,6.90
2017-11-21T06:31:49.898Z,6.90
2017-11-21T06:34:17.437Z,6.90
2017-11-21T06:36:44.959Z,6.90
2017-11-21T06:39:13.286Z,6.90
2017-11-21T06:41:40.984Z,6.90
2017-11-21T06:44:09.300Z,6.90
2017-11-21T06:46:36.800Z,6.90
2017-11-21T06:49:04.923Z,6.80
2017-11-21T06:51:32.535Z,6.80
2017-11-21T06:54:00.059Z,6.80
2017-11-21T06:56:27.587Z,6.80
2017-11-21T06:58:55.846Z,7.00
2017-11-21T07:01:23.368Z,7.00
2017-11-21T07:03:50.900Z,6.90
2017-11-21T07:06:18.421Z,6.80
2017-11-21T07:08:46.735Z,6.60
2017-11-21T07:11:14.276Z,6.60
2017-11-21T07:13:42.575Z,6.70
2017-11-21T07:16:10.240Z,6.70
2017-11-21T07:18:37.768Z,6.70
2017-11-21T07:21:05.277Z,6.90
2017-11-21T07:23:32.815Z,6.80
2017-11-21T07:26:00.375Z,6.70
2017-11-21T07:28:27.900Z,6.70
2017-11-21T07:30:56.179Z,6.50
2017-11-21T07:33:23.704Z,6.40
2017-11-21T07:35:51.231Z,6.30
2017-11-21T07:38:19.356Z,6.30
2017-11-21T07:40:47.308Z,6.50
2017-11-21T07:43:14.870Z,6.70
2017-11-21T07:45:42.453Z,6.70
2017-11-21T07:48:10.000Z,6.90
2017-11-21T07:50:37.787Z,6.90
2017-11-21T07:53:05.296Z,6.90
2017-11-21T07:55:32.837Z,7.00
2017-11-21T07:58:00.365Z,7.10
2017-11-21T08:00:27.881Z,7.10
2017-11-21T08:02:55.410Z,7.10
2017-11-21T08:05:22.946Z,7.20
2017-11-21T08:07:51.224Z,7.30
2017-11-21T08:10:18.746Z,7.30
2017-11-21T08:12:46.294Z,7.40
2017-11-21T08:15:13.842Z,7.40
2017-11-21T08:17:41.350Z,7.30
2017-11-21T08:20:08.892Z,7.40
2017-11-21T08:22:36.400Z,7.50
2017-11-21T08:25:04.672Z,7.50
2017-11-21T08:27:32.969Z,7.40
2017-11-21T08:30:00.484Z,7.40
2017-11-21T08:32:28.012Z,7.30
2017-11-21T08:34:55.551Z,7.30
2017-11-21T08:37:23.095Z,7.30
2017-11-21T08:39:50.664Z,7.30
2017-11-21T08:42:18.153Z,7.20
2017-11-21T08:44:45.765Z,7.30
2017-11-21T08:47:14.048Z,7.50
2017-11-21T08:49:42.328Z,7.40
2017-11-21T08:52:10.642Z,7.40
2017-11-21T08:54:38.149Z,7.40
2017-11-21T08:57:06.467Z,7.40
2017-11-21T08:59:34.057Z,7.40
2017-11-21T09:02:01.601Z,7.50
2017-11-21T09:04:29.281Z,7.60
2017-11-21T09:06:56.797Z,7.60
2017-11-21T09:09:24.333Z,7.80
2017-11-21T09:11:52.622Z,7.80
2017-11-21T09:14:20.168Z,7.70
2017-11-21T09:16:48.494Z,7.70
2017-11-21T09:19:16.008Z,7.60
2017-11-21T09:21:44.282Z,7.30
2017-11-21T09:24:12.555Z,7.50
2017-11-21T09:26:40.904Z,7.50
2017-11-21T09:29:08.448Z,7.50
2017-11-21T09:31:35.953Z,7.60
2017-11-21T09:34:04.235Z,7.60
2017-11-21T09:36:32.532Z,7.60
2017-11-21T09:39:00.072Z,7.60
2017-11-21T09:41:28.388Z,7.40
2017-11-21T09:43:55.904Z,7.40
2017-11-21T09:46:24.207Z,7.70
2017-11-21T09:48:51.913Z,7.70
2017-11-21T09:51:19.427Z,7.80
2017-11-21T09:53:46.956Z,7.80
2017-11-21T09:56:15.301Z,7.60
2017-11-21T09:58:42.807Z,7.60
2017-11-21T10:01:11.090Z,7.80
2017-11-21T10:03:39.412Z,7.80
2017-11-21T10:06:06.921Z,7.80
2017-11-21T10:08:35.212Z,7.70
2017-11-21T10:11:03.511Z,7.80
2017-11-21T10:13:31.035Z,7.70
2017-11-21T10:15:59.321Z,7.90
2017-11-21T10:18:27.610Z,7.90
2017-11-21T10:20:55.138Z,7.90
2017-11-21T10:23:22.674Z,7.90
2017-11-21T10:25:50.204Z,7.90
2017-11-21T10:28:17.714Z,7.60
2017-11-21T10:30:45.236Z,7.50
2017-11-21T10:33:12.772Z,7.50
2017-11-21T10:35:40.295Z,7.60
2017-11-21T10:38:07.812Z,7.90
2017-11-21T10:40:35.380Z,8.00
2017-11-21T10:43:03.022Z,8.10
2017-11-21T10:45:30.536Z,8.00
2017-11-21T10:47:58.058Z,8.20
2017-11-21T10:50:25.587Z,8.20
2017-11-21T10:52:53.104Z,8.20
2017-11-21T10:55:20.777Z,8.40
2017-11-21T10:57:48.304Z,8.20
2017-11-21T11:00:15.810Z,8.20
2017-11-21T11:02:44.103Z,8.10
2017-11-21T11:05:11.623Z,8.10
2017-11-21T11:07:39.116Z,8.10
2017-11-21T11:10:06.681Z,8.20
2017-11-21T11:12:34.222Z,8.00
2017-11-21T11:15:02.488Z,8.10
2017-11-21T11:17:30.015Z,8.10
2017-11-21T11:19:57.537Z,8.20
2017-11-21T11:22:25.047Z,8.20
2017-11-21T11:24:52.618Z,8.20
2017-11-21T11:27:20.143Z,8.30
2017-11-21T11:29:47.660Z,8.40
2017-11-21T11:32:15.938Z,8.60
2017-11-21T11:34:44.269Z,8.70
2017-11-21T11:37:11.795Z,8.70
2017-11-21T11:39:39.297Z,8.80
2017-11-21T11:42:06.849Z,8.80
2017-11-21T11:44:34.394Z,8.90
2017-11-21T11:47:01.930Z,9.00
2017-11-21T11:49:29.844Z,8.90
2017-11-21T11:51:57.353Z,8.90
2017-11-21T11:54:24.881Z,8.70
2017-11-21T11:56:52.445Z,8.60
2017-11-21T11:59:20.731Z,8.40
2017-11-21T12:01:49.028Z,8.50
2017-11-21T12:04:16.565Z,8.50
2017-11-21T12:06:44.861Z,8.70
2017-11-21T12:09:12.365Z,8.70
2017-11-21T12:11:39.865Z,8.80
2017-11-21T12:14:08.180Z,8.60
2017-11-21T12:16:35.708Z,8.70
2017-11-21T12:19:04.026Z,8.30
2017-11-21T12:21:31.534Z,8.30
2017-11-21T12:23:59.962Z,8.40
2017-11-21T12:26:27.497Z,8.40
2017-11-21T12:28:55.064Z,8.40
2017-11-21T12:31:22.635Z,8.30
2017-11-21T12:33:50.148Z,8.10
2017-11-21T12:36:18.486Z,8.00
2017-11-21T12:38:46.000Z,8.00
2017-11-21T12:41:14.288Z,8.10
2017-11-21T12:43:41.824Z,8.10
2017-11-21T12:46:10.107Z,8.10
2017-11-21T12:48:38.380Z,8.30
2017-11-21T12:51:05.917Z,8.30
2017-11-21T12:53:33.429Z,8.40
2017-11-21T12:56:00.952Z,8.50
2017-11-21T12:58:29.252Z,8.50
2017-11-21T13:00:57.566Z,8.60
2017-11-21T13:03:25.171Z,8.60
2017-11-21T13:05:53.581Z,8.40
2017-11-21T13:08:21.106Z,8.40
2017-11-21T13:10:48.635Z,8.30
2017-11-21T13:13:16.174Z,8.20
2017-11-21T13:15:43.736Z,8.20
2017-11-21T13:18:11.256Z,8.10
2017-11-21T13:20:39.533Z,8.00
2017-11-21T13:23:07.920Z,7.80
2017-11-21T13:25:36.205Z,8.00
2017-11-21T13:28:03.725Z,7.90
2017-11-21T13:30:31.237Z,8.10
2017-11-21T13:32:58.839Z,7.90
2017-11-21T13:35:26.379Z,7.90
2017-11-21T13:37:53.895Z,8.00
2017-11-21T13:40:22.212Z,8.10
2017-11-21T13:42:49.754Z,8.10
2017-11-21T13:45:17.316Z,8.10
2017-11-21T13:47:44.854Z,8.20
2017-11-21T13:50:13.181Z,8.10
2017-11-21T13:52:40.681Z,8.10
2017-11-21T13:55:08.976Z,8.30
2017-11-21T13:57:36.526Z,8.30
2017-11-21T14:00:04.077Z,8.20
2017-11-21T14:02:33.160Z,8.20
2017-11-21T14:05:01.485Z,8.20
2017-11-21T14:07:29.039Z,8.20
2017-11-21T14:09:56.562Z,8.20
2017-11-21T14:12:24.894Z,8.00
2017-11-21T14:14:52.437Z,7.90
2017-11-21T14:17:19.980Z,8.10
2017-11-21T14:19:47.649Z,8.10
2017-11-21T14:22:15.180Z,8.10
2017-11-21T14:24:43.481Z,8.00
2017-11-21T14:27:11.044Z,8.00
2017-11-21T14:29:38.595Z,7.90
2017-11-21T14:32:06.224Z,7.90
2017-11-21T14:34:33.852Z,8.00
2017-11-21T14:37:01.437Z,8.00
2017-11-21T14:39:29.024Z,8.00
2017-11-21T14:41:57.343Z,8.20
2017-11-21T14:44:24.852Z,8.20
2017-11-21T14:46:52.408Z,8.20
2017-11-21T14:49:19.978Z,8.30
2017-11-21T14:51:47.492Z,8.30
2017-11-21T14:54:14.997Z,8.30
2017-11-21T14:56:42.635Z,8.30
2017-11-21T14:59:10.200Z,8.10
2017-11-21T15:01:37.721Z,8.20
2017-11-21T15:04:05.294Z,8.20
2017-11-21T15:06:32.812Z,8.40
2017-11-21T15:09:01.115Z,8.40
2017-11-21T15:11:28.649Z,8.40
2017-11-21T15:13:56.976Z,8.30
2017-11-21T15:16:24.500Z,8.30
2017-11-21T15:18:52.080Z,8.40
2017-11-21T15:21:20.553Z,8.50
2017-11-21T15:23:48.060Z,8.60
2017-11-21T15:26:15.573Z,8.60
2017-11-21T15:28:43.155Z,8.50
2017-11-21T15:31:10.695Z,8.50
2017-11-21T15:33:38.246Z,8.30
2017-11-21T15:36:05.857Z,8.40
2017-11-21T15:38:33.375Z,8.50
2017-11-21T15:41:00.918Z,8.50
2017-11-21T15:43:28.606Z,8.50
2017-11-21T15:45:56.120Z,8.50
2017-11-21T15:48:24.417Z,8.30
2017-11-21T15:50:51.923Z,8.30
2017-11-21T15:53:19.452Z,8.40
2017-11-21T15:55:47.048Z,8.50
2017-11-21T15:58:14.604Z,8.20
2017-11-21T16:00:42.122Z,8.20
2017-11-21T16:03:10.400Z,8.20
2017-11-21T16:05:37.969Z,8.20
2017-11-21T16:08:05.508Z,8.20
2017-11-21T16:10:33.793Z,8.30
2017-11-21T16:13:01.337Z,8.30
2017-11-21T16:15:29.727Z,8.50
2017-11-21T16:17:58.072Z,8.30
2017-11-21T16:20:25.595Z,8.30
2017-11-21T16:22:53.187Z,8.10
2017-11-21T16:25:20.693Z,8.20
2017-11-21T16:27:48.265Z,8.20
2017-11-21T16:30:15.769Z,8.40
2017-11-21T16:32:43.282Z,8.40
2017-11-21T16:35:10.810Z,8.40
2017-11-21T16:37:39.413Z,8.40
2017-11-21T16:40:06.953Z,8.30
2017-11-21T16:42:35.228Z,8.30
2017-11-21T16:45:03.505Z,8.50
2017-11-21T16:47:31.071Z,8.50
2017-11-21T16:49:59.340Z,8.30
2017-11-21T16:52:27.677Z,8.30
2017-11-21T16:54:55.205Z,8.30
2017-11-21T16:57:22.749Z,8.30
2017-11-21T16:59:51.028Z,8.40
2017-11-21T17:02:19.325Z,8.40
2017-11-21T17:04:46.842Z,8.40
2017-11-21T17:07:14.371Z,8.30
2017-11-21T17:09:42.052Z,8.30
2017-11-21T17:12:09.571Z,8.30
2017-11-21T17:14:37.095Z,8.40
2017-11-21T17:17:05.389Z,8.30
2017-11-21T17:19:32.890Z,8.30
2017-11-21T17:22:00.426Z,8.30
2017-11-21T17:24:27.930Z,8.30
2017-11-21T17:26:55.548Z,8.50
2017-11-21T17:29:23.254Z,8.50
2017-11-21T17:31:50.845Z,8.50
2017-11-21T17:34:19.160Z,8.20
2017-11-21T17:36:46.673Z,8.20
2017-11-21T17:39:14.964Z,8.30
2017-11-21T17:41:43.328Z,8.30
2017-11-21T17:44:10.881Z,8.20
2017-11-21T17:46:38.380Z,8.40
2017-11-21T17:49:05.921Z,8.40
2017-11-21T17:51:34.248Z,8.40
2017-11-21T17:54:01.770Z,8.40
2017-11-21T17:56:29.310Z,8.40
2017-11-21T17:58:57.600Z,8.40
2017-11-21T18:01:25.232Z,8.40
2017-11-21T18:03:52.841Z,8.50
2017-11-21T18:06:24.060Z,8.50
2017-11-21T18:08:52.382Z,8.60
2017-11-21T18:11:19.923Z,8.60
2017-11-21T18:13:47.470Z,8.60
2017-11-21T18:16:15.016Z,8.60
2017-11-21T18:18:43.524Z,8.70
2017-11-21T18:21:11.101Z,8.70
2017-11-21T18:23:38.762Z,8.60
2017-11-21T18:26:09.207Z,8.70
2017-11-21T18:28:36.726Z,8.60
2017-11-21T18:31:04.328Z,8.60
2017-11-21T18:33:31.845Z,8.40
2017-11-21T18:35:59.378Z,8.50
2017-11-21T18:38:27.677Z,8.40
2017-11-21T18:40:55.356Z,8.40
2017-11-21T18:43:22.889Z,8.50
2017-11-21T18:45:51.196Z,8.50
2017-11-21T18:48:18.715Z,8.50
2017-11-21T18:50:47.134Z,8.50
2017-11-21T18:53:14.637Z,8.50
2017-11-21T18:55:42.151Z,8.60
2017-11-21T18:58:09.835Z,8.50
2017-11-21T19:00:37.383Z,8.60
2017-11-21T19:03:04.899Z,8.50
2017-11-21T19:05:33.220Z,8.30
2017-11-21T19:08:00.741Z,8.30
2017-11-21T19:10:29.033Z,8.20
2017-11-21T19:12:56.582Z,8.20
2017-11-21T19:15:24.933Z,8.20
2017-11-21T19:17:52.442Z,8.20
2017-11-21T19:20:19.988Z,8.30
2017-11-21T19:22:48.466Z,8.40
2017-11-21T19:25:16.004Z,8.40
2017-11-21T19:27:44.289Z,8.50
2017-11-21T19:30:12.576Z,8.50
2017-11-21T19:32:41.052Z,8.50
2017-11-21T19:35:09.350Z,8.50
2017-11-21T19:37:36.902Z,8.50
2017-11-21T19:40:05.481Z,8.50
2017-11-21T19:42:33.789Z,8.50
2017-11-21T19:45:01.326Z,8.50
2017-11-21T19:47:28.876Z,8.50
2017-11-21T19:49:57.183Z,8.40
2017-11-21T19:52:24.724Z,8.40
2017-11-21T19:54:52.266Z,8.40
2017-11-21T19:57:20.550Z,8.40
2017-11-21T19:59:48.078Z,8.40
2017-11-21T20:02:16.399Z,8.40
2017-11-21T20:04:43.998Z,8.40
2017-11-21T20:07:11.541Z,8.40
2017-11-21T20:09:39.094Z,8.50
2017-11-21T20:12:06.810Z,8.40
2017-11-21T20:14:35.184Z,8.40
2017-11-21T20:17:02.943Z,8.30
2017-11-21T20:19:30.541Z,8.40
2017-11-21T20:21:58.834Z,8.50
2017-11-21T20:24:26.408Z,8.50
2017-11-21T20:26:53.953Z,8.50
2017-11-21T20:29:21.523Z,8.50
2017-11-21T20:31:49.176Z,8.30
2017-11-21T20:34:16.758Z,8.40
2017-11-21T20:36:44.446Z,8.50
2017-11-21T20:39:11.980Z,8.50
2017-11-21T20:41:39.500Z,8.40
2017-11-21T20:44:07.820Z,8.40
2017-11-21T20:46:35.339Z,8.40
2017-11-21T20:49:03.633Z,8.50
2017-11-21T20:51:31.199Z,8.50
2017-11-21T20:53:58.737Z,8.50
2017-11-21T20:56:26.295Z,8.50
2017-11-21T20:58:54.602Z,8.50
2017-11-21T21:01:22.202Z,8.50
2017-11-21T21:03:49.731Z,8.50
2017-11-21T21:06:17.301Z,8.60
2017-11-21T21:08:48.614Z,8.60
2017-11-21T21:11:16.290Z,8.70
2017-11-21T21:13:43.839Z,8.70
2017-11-21T21:16:11.385Z,8.60
2017-11-21T21:18:39.691Z,8.50
2017-11-21T21:21:07.235Z,8.50
2017-11-21T21:23:34.957Z,8.60
2017-11-21T21:26:02.486Z,8.50
2017-11-21T21:31:22.448Z,8.50
2017-11-21T21:33:50.708Z,8.50
2017-11-21T21:36:18.231Z,8.50
2017-11-21T21:38:45.740Z,8.40
2017-11-21T21:41:14.021Z,8.30
2017-11-21T21:43:42.876Z,8.40
2017-11-21T21:46:10.378Z,8.40
2017-11-21T21:48:37.905Z,8.50
2017-11-21T21:51:05.471Z,8.40
2017-11-21T21:53:33.754Z,8.50
2017-11-21T21:56:02.079Z,8.60
2017-11-21T21:58:29.635Z,8.60
2017-11-21T22:00:57.192Z,8.60
2017-11-21T22:03:24.750Z,8.60
2017-11-21T22:05:52.274Z,8.60
2017-11-21T22:08:20.548Z,8.50
2017-11-21T22:10:48.995Z,8.50
2017-11-21T22:13:16.517Z,8.50
2017-11-21T22:15:44.027Z,8.50
2017-11-21T22:18:11.548Z,8.60
2017-11-21T22:20:39.121Z,8.50
2017-11-21T22:23:06.663Z,8.50
2017-11-21T22:25:34.191Z,8.50
2017-11-21T22:28:02.525Z,8.50
2017-11-21T22:30:30.079Z,8.50
2017-11-21T22:32:57.670Z,8.60
2017-11-21T22:35:25.224Z,8.60
2017-11-21T22:37:52.741Z,8.60
2017-11-21T22:40:20.249Z,8.60
2017-11-21T22:42:47.753Z,8.60
2017-11-21T22:45:15.277Z,8.60
2017-11-21T22:47:42.798Z,8.60
2017-11-21T22:50:11.127Z,8.60
2017-11-21T22:52:39.412Z,8.60
2017-11-21T22:55:07.711Z,8.60
2017-11-21T22:57:35.255Z,8.60
2017-11-21T23:00:03.556Z,8.40
2017-11-21T23:02:31.091Z,8.40
2017-11-21T23:04:59.373Z,8.40
2017-11-21T23:07:27.716Z,8.50
2017-11-21T23:09:55.216Z,8.40
2017-11-21T23:12:22.776Z,8.40
2017-11-21T23:14:50.371Z,8.50
2017-11-21T23:17:17.895Z,8.50
2017-11-21T23:19:45.495Z,8.60
2017-11-21T23:22:12.988Z,8.60
2017-11-21T23:24:41.289Z,8.80
2017-11-21T23:27:08.788Z,8.70
2017-11-21T23:29:36.297Z,8.70
2017-11-21T23:32:05.498Z,8.70
2017-11-21T23:34:33.808Z,8.70
2017-11-21T23:37:01.303Z,8.70
2017-11-21T23:39:28.816Z,8.80
2017-11-21T23:41:56.350Z,8.80
2017-11-21T23:44:24.629Z,8.70
2017-11-21T23:46:52.930Z,8.60
2017-11-21T23:49:20.434Z,8.60
2017-11-21T23:51:47.987Z,8.60
2017-11-21T23:54:15.490Z,8.60
2017-11-21T23:56:43.808Z,8.60
2017-11-21T23:59:11.343Z,8.60
